sensor_id;sensor_type;location;lat;lon;timestamp;P1;durP1;ratioP1;P2;durP2;ratioP2
37931;SDS011;23758;42.640;23.302;2023-05-09T00:02:07;2.70;;;2.50;;
37931;SDS011;23758;42.640;23.302;2023-05-09T00:04:32;2.80;;;2.60;;
37931;SDS011;23758;42.640;23.302;2023-05-09T00:06:59;2.80;;;2.60;;
37931;SDS011;23758;42.640;23.302;2023-05-09T00:09:24;2.70;;;2.50;;
37931;SDS011;23758;42.640;23.302;2023-05-09T00:11:50;2.80;;;2.60;;
37931;SDS011;23758;42.640;23.302;2023-05-09T00:14:15;2.70;;;2.50;;
37931;SDS011;23758;42.640;23.302;2023-05-09T00:16:42;3.00;;;2.80;;
37931;SDS011;23758;42.640;23.302;2023-05-09T00:19:08;3.17;;;2.97;;
37931;SDS011;23758;42.640;23.302;2023-05-09T00:21:34;2.67;;;2.47;;
37931;SDS011;23758;42.640;23.302;2023-05-09T00:24:00;2.90;;;2.70;;
37931;SDS011;23758;42.640;23.302;2023-05-09T00:26:25;2.70;;;2.50;;
37931;SDS011;23758;42.640;23.302;2023-05-09T00:28:51;2.80;;;2.60;;
37931;SDS011;23758;42.640;23.302;2023-05-09T00:31:17;2.80;;;2.60;;
37931;SDS011;23758;42.640;23.302;2023-05-09T00:33:42;2.80;;;2.60;;
37931;SDS011;23758;42.640;23.302;2023-05-09T00:36:08;3.15;;;2.95;;
37931;SDS011;23758;42.640;23.302;2023-05-09T00:38:33;3.17;;;2.97;;
37931;SDS011;23758;42.640;23.302;2023-05-09T00:40:59;2.85;;;2.65;;
37931;SDS011;23758;42.640;23.302;2023-05-09T00:43:24;2.70;;;2.50;;
37931;SDS011;23758;42.640;23.302;2023-05-09T00:45:50;2.83;;;2.63;;
37931;SDS011;23758;42.640;23.302;2023-05-09T00:48:15;2.75;;;2.55;;
37931;SDS011;23758;42.640;23.302;2023-05-09T00:50:41;2.75;;;2.55;;
37931;SDS011;23758;42.640;23.302;2023-05-09T00:53:08;2.95;;;2.75;;
37931;SDS011;23758;42.640;23.302;2023-05-09T00:55:34;2.55;;;2.42;;
37931;SDS011;23758;42.640;23.302;2023-05-09T00:58:00;2.70;;;2.50;;
37931;SDS011;23758;42.640;23.302;2023-05-09T01:00:26;2.70;;;2.50;;
37931;SDS011;23758;42.640;23.302;2023-05-09T01:02:53;2.53;;;2.42;;
37931;SDS011;23758;42.640;23.302;2023-05-09T01:05:19;2.60;;;2.40;;
37931;SDS011;23758;42.640;23.302;2023-05-09T01:11:10;2.60;;;2.40;;
37931;SDS011;23758;42.640;23.302;2023-05-09T01:18:49;2.58;;;2.40;;
37931;SDS011;23758;42.640;23.302;2023-05-09T01:21:20;2.50;;;2.38;;
37931;SDS011;23758;42.640;23.302;2023-05-09T01:26:45;2.40;;;2.30;;
37931;SDS011;23758;42.640;23.302;2023-05-09T01:32:09;2.45;;;2.35;;
37931;SDS011;23758;42.640;23.302;2023-05-09T01:34:39;2.67;;;2.47;;
37931;SDS011;23758;42.640;23.302;2023-05-09T01:37:05;2.45;;;2.35;;
37931;SDS011;23758;42.640;23.302;2023-05-09T01:39:31;2.63;;;2.42;;
37931;SDS011;23758;42.640;23.302;2023-05-09T01:42:01;2.50;;;2.40;;
37931;SDS011;23758;42.640;23.302;2023-05-09T01:44:31;2.80;;;2.60;;
37931;SDS011;23758;42.640;23.302;2023-05-09T01:47:03;2.78;;;2.58;;
37931;SDS011;23758;42.640;23.302;2023-05-09T01:49:30;2.67;;;2.47;;
37931;SDS011;23758;42.640;23.302;2023-05-09T01:51:57;2.90;;;2.70;;
37931;SDS011;23758;42.640;23.302;2023-05-09T01:54:24;2.70;;;2.50;;
37931;SDS011;23758;42.640;23.302;2023-05-09T01:56:51;2.90;;;2.70;;
37931;SDS011;23758;42.640;23.302;2023-05-09T01:59:17;2.75;;;2.55;;
37931;SDS011;23758;42.640;23.302;2023-05-09T02:01:43;2.70;;;2.50;;
37931;SDS011;23758;42.640;23.302;2023-05-09T02:04:10;3.03;;;2.75;;
37931;SDS011;23758;42.640;23.302;2023-05-09T02:06:36;2.50;;;2.40;;
37931;SDS011;23758;42.640;23.302;2023-05-09T02:09:02;3.15;;;2.72;;
37931;SDS011;23758;42.640;23.302;2023-05-09T02:11:28;2.90;;;2.70;;
37931;SDS011;23758;42.640;23.302;2023-05-09T02:13:53;2.63;;;2.45;;
37931;SDS011;23758;42.640;23.302;2023-05-09T02:16:19;2.80;;;2.60;;
37931;SDS011;23758;42.640;23.302;2023-05-09T02:18:45;2.70;;;2.50;;
37931;SDS011;23758;42.640;23.302;2023-05-09T02:21:11;2.70;;;2.50;;
37931;SDS011;23758;42.640;23.302;2023-05-09T02:23:36;2.60;;;2.40;;
37931;SDS011;23758;42.640;23.302;2023-05-09T02:26:02;2.53;;;2.38;;
37931;SDS011;23758;42.640;23.302;2023-05-09T02:28:28;3.25;;;3.05;;
37931;SDS011;23758;42.640;23.302;2023-05-09T02:30:53;2.65;;;2.45;;
37931;SDS011;23758;42.640;23.302;2023-05-09T02:33:20;2.70;;;2.50;;
37931;SDS011;23758;42.640;23.302;2023-05-09T02:35:46;2.85;;;2.65;;
37931;SDS011;23758;42.640;23.302;2023-05-09T02:38:12;2.40;;;2.30;;
37931;SDS011;23758;42.640;23.302;2023-05-09T02:40:37;2.70;;;2.50;;
37931;SDS011;23758;42.640;23.302;2023-05-09T02:43:03;2.80;;;2.60;;
37931;SDS011;23758;42.640;23.302;2023-05-09T02:45:29;2.70;;;2.50;;
37931;SDS011;23758;42.640;23.302;2023-05-09T02:47:55;2.70;;;2.50;;
37931;SDS011;23758;42.640;23.302;2023-05-09T02:50:20;2.53;;;2.40;;
37931;SDS011;23758;42.640;23.302;2023-05-09T02:52:45;2.88;;;2.67;;
37931;SDS011;23758;42.640;23.302;2023-05-09T02:55:11;2.63;;;2.42;;
37931;SDS011;23758;42.640;23.302;2023-05-09T02:57:36;2.53;;;2.40;;
37931;SDS011;23758;42.640;23.302;2023-05-09T03:00:02;2.80;;;2.60;;
37931;SDS011;23758;42.640;23.302;2023-05-09T03:02:33;2.53;;;2.40;;
37931;SDS011;23758;42.640;23.302;2023-05-09T03:04:58;2.83;;;2.63;;
37931;SDS011;23758;42.640;23.302;2023-05-09T03:07:23;2.80;;;2.60;;
37931;SDS011;23758;42.640;23.302;2023-05-09T03:09:49;2.85;;;2.65;;
37931;SDS011;23758;42.640;23.302;2023-05-09T03:12:14;2.40;;;2.30;;
37931;SDS011;23758;42.640;23.302;2023-05-09T03:14:40;2.40;;;2.30;;
37931;SDS011;23758;42.640;23.302;2023-05-09T03:17:05;2.50;;;2.38;;
37931;SDS011;23758;42.640;23.302;2023-05-09T03:19:31;2.30;;;2.20;;
37931;SDS011;23758;42.640;23.302;2023-05-09T03:21:56;2.50;;;2.40;;
37931;SDS011;23758;42.640;23.302;2023-05-09T03:24:22;2.47;;;2.38;;
37931;SDS011;23758;42.640;23.302;2023-05-09T03:26:50;2.33;;;2.22;;
37931;SDS011;23758;42.640;23.302;2023-05-09T03:29:15;2.45;;;2.35;;
37931;SDS011;23758;42.640;23.302;2023-05-09T03:31:41;2.38;;;2.28;;
37931;SDS011;23758;42.640;23.302;2023-05-09T03:34:06;2.50;;;2.40;;
37931;SDS011;23758;42.640;23.302;2023-05-09T03:36:37;2.50;;;2.40;;
37931;SDS011;23758;42.640;23.302;2023-05-09T03:39:02;3.08;;;2.55;;
37931;SDS011;23758;42.640;23.302;2023-05-09T03:41:27;2.70;;;2.50;;
37931;SDS011;23758;42.640;23.302;2023-05-09T03:43:53;2.50;;;2.40;;
37931;SDS011;23758;42.640;23.302;2023-05-09T03:46:18;2.70;;;2.50;;
37931;SDS011;23758;42.640;23.302;2023-05-09T03:48:44;2.40;;;2.30;;
37931;SDS011;23758;42.640;23.302;2023-05-09T03:51:09;2.72;;;2.53;;
37931;SDS011;23758;42.640;23.302;2023-05-09T03:53:35;2.45;;;2.35;;
37931;SDS011;23758;42.640;23.302;2023-05-09T03:56:00;2.40;;;2.30;;
37931;SDS011;23758;42.640;23.302;2023-05-09T03:58:26;2.40;;;2.30;;
37931;SDS011;23758;42.640;23.302;2023-05-09T04:00:51;2.50;;;2.40;;
37931;SDS011;23758;42.640;23.302;2023-05-09T04:03:17;2.40;;;2.30;;
37931;SDS011;23758;42.640;23.302;2023-05-09T04:05:43;2.63;;;2.42;;
37931;SDS011;23758;42.640;23.302;2023-05-09T04:08:08;2.55;;;2.40;;
37931;SDS011;23758;42.640;23.302;2023-05-09T04:10:34;2.60;;;2.40;;
37931;SDS011;23758;42.640;23.302;2023-05-09T04:12:59;2.70;;;2.50;;
37931;SDS011;23758;42.640;23.302;2023-05-09T04:15:25;2.67;;;2.47;;
37931;SDS011;23758;42.640;23.302;2023-05-09T04:17:50;2.40;;;2.30;;
37931;SDS011;23758;42.640;23.302;2023-05-09T04:20:16;2.30;;;2.20;;
37931;SDS011;23758;42.640;23.302;2023-05-09T04:22:41;2.53;;;2.35;;
37931;SDS011;23758;42.640;23.302;2023-05-09T04:25:06;2.38;;;2.28;;
37931;SDS011;23758;42.640;23.302;2023-05-09T04:27:36;2.63;;;2.42;;
37931;SDS011;23758;42.640;23.302;2023-05-09T04:30:02;2.42;;;2.33;;
37931;SDS011;23758;42.640;23.302;2023-05-09T04:32:27;2.95;;;2.75;;
37931;SDS011;23758;42.640;23.302;2023-05-09T04:34:53;2.85;;;2.65;;
37931;SDS011;23758;42.640;23.302;2023-05-09T04:37:18;2.50;;;2.40;;
37931;SDS011;23758;42.640;23.302;2023-05-09T04:39:44;2.70;;;2.50;;
37931;SDS011;23758;42.640;23.302;2023-05-09T04:42:10;3.00;;;2.80;;
37931;SDS011;23758;42.640;23.302;2023-05-09T04:44:35;3.55;;;3.25;;
37931;SDS011;23758;42.640;23.302;2023-05-09T04:47:01;2.70;;;2.50;;
37931;SDS011;23758;42.640;23.302;2023-05-09T04:49:26;2.53;;;2.40;;
37931;SDS011;23758;42.640;23.302;2023-05-09T04:51:51;2.70;;;2.50;;
37931;SDS011;23758;42.640;23.302;2023-05-09T04:54:17;3.05;;;2.85;;
37931;SDS011;23758;42.640;23.302;2023-05-09T04:56:42;2.42;;;2.33;;
37931;SDS011;23758;42.640;23.302;2023-05-09T04:59:08;2.50;;;2.40;;
37931;SDS011;23758;42.640;23.302;2023-05-09T05:01:33;2.40;;;2.30;;
37931;SDS011;23758;42.640;23.302;2023-05-09T05:03:59;2.20;;;2.10;;
37931;SDS011;23758;42.640;23.302;2023-05-09T05:06:24;2.20;;;2.10;;
37931;SDS011;23758;42.640;23.302;2023-05-09T05:08:50;2.17;;;2.08;;
37931;SDS011;23758;42.640;23.302;2023-05-09T05:11:15;2.10;;;2.00;;
37931;SDS011;23758;42.640;23.302;2023-05-09T05:13:42;2.30;;;2.20;;
37931;SDS011;23758;42.640;23.302;2023-05-09T05:16:08;2.10;;;2.00;;
37931;SDS011;23758;42.640;23.302;2023-05-09T05:18:33;2.22;;;2.13;;
37931;SDS011;23758;42.640;23.302;2023-05-09T05:20:59;2.20;;;2.10;;
37931;SDS011;23758;42.640;23.302;2023-05-09T05:23:24;2.30;;;2.20;;
37931;SDS011;23758;42.640;23.302;2023-05-09T05:25:50;2.10;;;2.00;;
37931;SDS011;23758;42.640;23.302;2023-05-09T05:28:15;2.10;;;2.00;;
37931;SDS011;23758;42.640;23.302;2023-05-09T05:30:41;2.28;;;2.17;;
37931;SDS011;23758;42.640;23.302;2023-05-09T05:33:06;2.35;;;2.25;;
37931;SDS011;23758;42.640;23.302;2023-05-09T05:35:31;2.25;;;2.15;;
37931;SDS011;23758;42.640;23.302;2023-05-09T05:37:57;2.20;;;2.10;;
37931;SDS011;23758;42.640;23.302;2023-05-09T05:40:22;2.20;;;2.10;;
37931;SDS011;23758;42.640;23.302;2023-05-09T05:42:48;2.30;;;2.20;;
37931;SDS011;23758;42.640;23.302;2023-05-09T05:45:13;5.10;;;2.67;;
37931;SDS011;23758;42.640;23.302;2023-05-09T05:47:39;2.45;;;2.35;;
37931;SDS011;23758;42.640;23.302;2023-05-09T05:50:04;2.30;;;2.20;;
37931;SDS011;23758;42.640;23.302;2023-05-09T05:52:38;2.20;;;2.10;;
37931;SDS011;23758;42.640;23.302;2023-05-09T05:55:04;2.60;;;2.40;;
37931;SDS011;23758;42.640;23.302;2023-05-09T05:57:30;2.25;;;2.15;;
37931;SDS011;23758;42.640;23.302;2023-05-09T05:59:56;2.50;;;2.30;;
37931;SDS011;23758;42.640;23.302;2023-05-09T06:02:21;2.05;;;1.95;;
37931;SDS011;23758;42.640;23.302;2023-05-09T06:04:47;2.30;;;2.20;;
37931;SDS011;23758;42.640;23.302;2023-05-09T06:07:12;2.10;;;2.00;;
37931;SDS011;23758;42.640;23.302;2023-05-09T06:09:38;2.17;;;2.08;;
37931;SDS011;23758;42.640;23.302;2023-05-09T06:12:03;2.28;;;2.17;;
37931;SDS011;23758;42.640;23.302;2023-05-09T06:14:30;2.10;;;2.00;;
37931;SDS011;23758;42.640;23.302;2023-05-09T06:16:55;2.30;;;2.20;;
37931;SDS011;23758;42.640;23.302;2023-05-09T06:19:21;2.20;;;2.10;;
37931;SDS011;23758;42.640;23.302;2023-05-09T06:21:46;2.10;;;2.00;;
37931;SDS011;23758;42.640;23.302;2023-05-09T06:24:12;2.30;;;2.20;;
37931;SDS011;23758;42.640;23.302;2023-05-09T06:26:37;2.10;;;2.00;;
37931;SDS011;23758;42.640;23.302;2023-05-09T06:29:03;2.20;;;2.10;;
37931;SDS011;23758;42.640;23.302;2023-05-09T06:31:30;2.20;;;2.10;;
37931;SDS011;23758;42.640;23.302;2023-05-09T06:33:55;2.10;;;2.00;;
37931;SDS011;23758;42.640;23.302;2023-05-09T06:36:21;2.10;;;2.00;;
37931;SDS011;23758;42.640;23.302;2023-05-09T06:38:46;2.15;;;2.05;;
37931;SDS011;23758;42.640;23.302;2023-05-09T06:41:12;2.20;;;2.10;;
37931;SDS011;23758;42.640;23.302;2023-05-09T06:43:37;2.10;;;2.00;;
37931;SDS011;23758;42.640;23.302;2023-05-09T06:46:03;2.40;;;2.22;;
37931;SDS011;23758;42.640;23.302;2023-05-09T06:48:29;2.20;;;2.10;;
37931;SDS011;23758;42.640;23.302;2023-05-09T06:50:54;2.20;;;2.10;;
37931;SDS011;23758;42.640;23.302;2023-05-09T06:53:20;2.08;;;1.98;;
37931;SDS011;23758;42.640;23.302;2023-05-09T06:55:45;2.10;;;2.00;;
37931;SDS011;23758;42.640;23.302;2023-05-09T06:58:11;2.28;;;2.17;;
37931;SDS011;23758;42.640;23.302;2023-05-09T07:00:37;2.03;;;1.92;;
37931;SDS011;23758;42.640;23.302;2023-05-09T07:03:02;2.00;;;1.90;;
37931;SDS011;23758;42.640;23.302;2023-05-09T07:05:28;2.10;;;2.00;;
37931;SDS011;23758;42.640;23.302;2023-05-09T07:07:53;2.10;;;2.00;;
37931;SDS011;23758;42.640;23.302;2023-05-09T07:10:19;2.10;;;2.00;;
37931;SDS011;23758;42.640;23.302;2023-05-09T07:12:48;2.10;;;2.00;;
37931;SDS011;23758;42.640;23.302;2023-05-09T07:15:14;2.40;;;2.28;;
37931;SDS011;23758;42.640;23.302;2023-05-09T07:17:40;1.95;;;1.85;;
37931;SDS011;23758;42.640;23.302;2023-05-09T07:20:06;2.13;;;2.03;;
37931;SDS011;23758;42.640;23.302;2023-05-09T07:22:31;2.05;;;1.95;;
37931;SDS011;23758;42.640;23.302;2023-05-09T07:24:57;2.10;;;2.00;;
37931;SDS011;23758;42.640;23.302;2023-05-09T07:27:22;2.10;;;2.00;;
37931;SDS011;23758;42.640;23.302;2023-05-09T07:29:48;2.92;;;2.38;;
37931;SDS011;23758;42.640;23.302;2023-05-09T07:32:16;2.10;;;2.00;;
37931;SDS011;23758;42.640;23.302;2023-05-09T07:34:42;2.10;;;2.00;;
37931;SDS011;23758;42.640;23.302;2023-05-09T07:37:08;2.10;;;2.00;;
37931;SDS011;23758;42.640;23.302;2023-05-09T07:39:33;2.60;;;2.40;;
37931;SDS011;23758;42.640;23.302;2023-05-09T07:41:58;2.10;;;2.00;;
37931;SDS011;23758;42.640;23.302;2023-05-09T07:44:24;2.10;;;2.00;;
37931;SDS011;23758;42.640;23.302;2023-05-09T07:46:50;2.17;;;2.08;;
37931;SDS011;23758;42.640;23.302;2023-05-09T07:49:15;2.20;;;2.10;;
37931;SDS011;23758;42.640;23.302;2023-05-09T07:51:41;2.10;;;2.00;;
37931;SDS011;23758;42.640;23.302;2023-05-09T07:54:06;5.57;;;2.80;;
37931;SDS011;23758;42.640;23.302;2023-05-09T07:56:34;2.10;;;2.00;;
37931;SDS011;23758;42.640;23.302;2023-05-09T07:58:59;2.00;;;1.90;;
37931;SDS011;23758;42.640;23.302;2023-05-09T08:01:25;2.20;;;2.10;;
37931;SDS011;23758;42.640;23.302;2023-05-09T08:03:51;2.10;;;2.00;;
37931;SDS011;23758;42.640;23.302;2023-05-09T08:06:16;1.90;;;1.80;;
37931;SDS011;23758;42.640;23.302;2023-05-09T08:08:41;2.00;;;1.90;;
37931;SDS011;23758;42.640;23.302;2023-05-09T08:11:07;1.80;;;1.70;;
37931;SDS011;23758;42.640;23.302;2023-05-09T08:13:32;2.00;;;1.90;;
37931;SDS011;23758;42.640;23.302;2023-05-09T08:15:59;2.00;;;1.90;;
37931;SDS011;23758;42.640;23.302;2023-05-09T08:18:25;1.90;;;1.80;;
37931;SDS011;23758;42.640;23.302;2023-05-09T08:20:50;1.95;;;1.85;;
37931;SDS011;23758;42.640;23.302;2023-05-09T08:23:16;1.90;;;1.80;;
37931;SDS011;23758;42.640;23.302;2023-05-09T08:25:41;1.80;;;1.70;;
37931;SDS011;23758;42.640;23.302;2023-05-09T08:28:07;1.80;;;1.70;;
37931;SDS011;23758;42.640;23.302;2023-05-09T08:30:32;1.85;;;1.75;;
37931;SDS011;23758;42.640;23.302;2023-05-09T08:32:58;2.67;;;2.47;;
37931;SDS011;23758;42.640;23.302;2023-05-09T08:35:23;1.90;;;1.80;;
37931;SDS011;23758;42.640;23.302;2023-05-09T08:37:49;2.00;;;1.90;;
37931;SDS011;23758;42.640;23.302;2023-05-09T08:40:15;2.03;;;1.92;;
37931;SDS011;23758;42.640;23.302;2023-05-09T08:42:40;2.00;;;1.90;;
37931;SDS011;23758;42.640;23.302;2023-05-09T08:45:08;1.90;;;1.80;;
37931;SDS011;23758;42.640;23.302;2023-05-09T08:47:36;2.00;;;1.90;;
37931;SDS011;23758;42.640;23.302;2023-05-09T08:50:02;1.95;;;1.85;;
37931;SDS011;23758;42.640;23.302;2023-05-09T08:52:31;2.00;;;1.90;;
37931;SDS011;23758;42.640;23.302;2023-05-09T08:54:58;2.00;;;1.90;;
37931;SDS011;23758;42.640;23.302;2023-05-09T08:57:24;2.10;;;2.00;;
37931;SDS011;23758;42.640;23.302;2023-05-09T08:59:51;2.00;;;1.90;;
37931;SDS011;23758;42.640;23.302;2023-05-09T09:02:17;2.10;;;2.00;;
37931;SDS011;23758;42.640;23.302;2023-05-09T09:04:42;2.00;;;1.90;;
37931;SDS011;23758;42.640;23.302;2023-05-09T09:07:09;1.90;;;1.80;;
37931;SDS011;23758;42.640;23.302;2023-05-09T09:09:35;2.00;;;1.90;;
37931;SDS011;23758;42.640;23.302;2023-05-09T09:12:02;2.00;;;1.90;;
37931;SDS011;23758;42.640;23.302;2023-05-09T09:14:31;2.13;;;2.03;;
37931;SDS011;23758;42.640;23.302;2023-05-09T09:16:56;3.03;;;1.90;;
37931;SDS011;23758;42.640;23.302;2023-05-09T09:19:23;2.42;;;2.22;;
37931;SDS011;23758;42.640;23.302;2023-05-09T09:21:54;2.10;;;2.00;;
37931;SDS011;23758;42.640;23.302;2023-05-09T09:24:23;2.00;;;1.90;;
37931;SDS011;23758;42.640;23.302;2023-05-09T09:26:49;2.00;;;1.90;;
37931;SDS011;23758;42.640;23.302;2023-05-09T09:29:15;2.10;;;2.00;;
37931;SDS011;23758;42.640;23.302;2023-05-09T09:31:45;1.90;;;1.80;;
37931;SDS011;23758;42.640;23.302;2023-05-09T09:34:12;2.00;;;1.90;;
37931;SDS011;23758;42.640;23.302;2023-05-09T09:36:38;2.10;;;2.00;;
37931;SDS011;23758;42.640;23.302;2023-05-09T09:39:04;2.00;;;1.90;;
37931;SDS011;23758;42.640;23.302;2023-05-09T09:41:32;2.00;;;1.90;;
37931;SDS011;23758;42.640;23.302;2023-05-09T09:44:05;2.13;;;2.03;;
37931;SDS011;23758;42.640;23.302;2023-05-09T09:46:44;2.00;;;1.90;;
37931;SDS011;23758;42.640;23.302;2023-05-09T09:49:20;1.90;;;1.80;;
37931;SDS011;23758;42.640;23.302;2023-05-09T09:51:50;2.10;;;2.00;;
37931;SDS011;23758;42.640;23.302;2023-05-09T09:54:24;2.15;;;2.05;;
37931;SDS011;23758;42.640;23.302;2023-05-09T09:56:51;2.00;;;1.90;;
37931;SDS011;23758;42.640;23.302;2023-05-09T09:59:22;2.10;;;2.00;;
37931;SDS011;23758;42.640;23.302;2023-05-09T10:04:32;2.00;;;1.90;;
37931;SDS011;23758;42.640;23.302;2023-05-09T10:06:59;2.00;;;1.90;;
37931;SDS011;23758;42.640;23.302;2023-05-09T10:09:27;2.08;;;1.98;;
37931;SDS011;23758;42.640;23.302;2023-05-09T10:11:54;1.85;;;1.75;;
37931;SDS011;23758;42.640;23.302;2023-05-09T10:14:21;1.85;;;1.75;;
37931;SDS011;23758;42.640;23.302;2023-05-09T10:16:48;2.00;;;1.90;;
37931;SDS011;23758;42.640;23.302;2023-05-09T10:19:18;2.00;;;1.90;;
37931;SDS011;23758;42.640;23.302;2023-05-09T10:21:54;1.90;;;1.80;;
37931;SDS011;23758;42.640;23.302;2023-05-09T10:24:25;2.00;;;1.90;;
37931;SDS011;23758;42.640;23.302;2023-05-09T10:26:52;2.10;;;2.00;;
37931;SDS011;23758;42.640;23.302;2023-05-09T10:29:24;2.00;;;1.90;;
37931;SDS011;23758;42.640;23.302;2023-05-09T10:31:53;2.00;;;1.90;;
37931;SDS011;23758;42.640;23.302;2023-05-09T10:34:23;2.00;;;1.90;;
37931;SDS011;23758;42.640;23.302;2023-05-09T10:36:50;1.90;;;1.80;;
37931;SDS011;23758;42.640;23.302;2023-05-09T10:39:15;1.90;;;1.80;;
37931;SDS011;23758;42.640;23.302;2023-05-09T10:41:41;1.88;;;1.77;;
37931;SDS011;23758;42.640;23.302;2023-05-09T10:44:07;1.98;;;1.88;;
37931;SDS011;23758;42.640;23.302;2023-05-09T10:46:32;2.00;;;1.90;;
37931;SDS011;23758;42.640;23.302;2023-05-09T10:48:58;2.00;;;1.90;;
37931;SDS011;23758;42.640;23.302;2023-05-09T10:51:25;1.90;;;1.80;;
37931;SDS011;23758;42.640;23.302;2023-05-09T10:53:51;1.90;;;1.80;;
37931;SDS011;23758;42.640;23.302;2023-05-09T10:56:24;1.95;;;1.85;;
37931;SDS011;23758;42.640;23.302;2023-05-09T10:58:54;1.90;;;1.80;;
37931;SDS011;23758;42.640;23.302;2023-05-09T11:01:38;1.90;;;1.80;;
37931;SDS011;23758;42.640;23.302;2023-05-09T11:04:10;1.92;;;1.83;;
37931;SDS011;23758;42.640;23.302;2023-05-09T11:14:47;1.80;;;1.70;;
37931;SDS011;23758;42.640;23.302;2023-05-09T11:24:52;1.80;;;1.70;;
37931;SDS011;23758;42.640;23.302;2023-05-09T11:27:23;1.90;;;1.80;;
37931;SDS011;23758;42.640;23.302;2023-05-09T11:29:52;1.90;;;1.80;;
37931;SDS011;23758;42.640;23.302;2023-05-09T11:32:18;1.80;;;1.70;;
37931;SDS011;23758;42.640;23.302;2023-05-09T11:34:45;1.90;;;1.80;;
37931;SDS011;23758;42.640;23.302;2023-05-09T11:37:12;1.92;;;1.83;;
37931;SDS011;23758;42.640;23.302;2023-05-09T11:39:56;1.95;;;1.85;;
37931;SDS011;23758;42.640;23.302;2023-05-09T11:42:23;2.13;;;2.03;;
37931;SDS011;23758;42.640;23.302;2023-05-09T11:44:50;1.80;;;1.70;;
37931;SDS011;23758;42.640;23.302;2023-05-09T11:47:16;1.90;;;1.80;;
37931;SDS011;23758;42.640;23.302;2023-05-09T11:49:42;1.90;;;1.80;;
37931;SDS011;23758;42.640;23.302;2023-05-09T11:52:07;1.98;;;1.88;;
37931;SDS011;23758;42.640;23.302;2023-05-09T11:54:34;2.00;;;1.90;;
37931;SDS011;23758;42.640;23.302;2023-05-09T11:57:03;2.22;;;2.13;;
37931;SDS011;23758;42.640;23.302;2023-05-09T11:59:29;1.83;;;1.73;;
37931;SDS011;23758;42.640;23.302;2023-05-09T12:01:54;2.00;;;1.90;;
37931;SDS011;23758;42.640;23.302;2023-05-09T12:04:20;2.05;;;1.95;;
37931;SDS011;23758;42.640;23.302;2023-05-09T12:06:46;2.00;;;1.90;;
37931;SDS011;23758;42.640;23.302;2023-05-09T12:09:13;2.15;;;2.03;;
37931;SDS011;23758;42.640;23.302;2023-05-09T12:11:49;2.00;;;1.90;;
37931;SDS011;23758;42.640;23.302;2023-05-09T12:16:53;2.00;;;1.90;;
37931;SDS011;23758;42.640;23.302;2023-05-09T12:19:19;2.00;;;1.90;;
37931;SDS011;23758;42.640;23.302;2023-05-09T12:21:45;2.00;;;1.90;;
37931;SDS011;23758;42.640;23.302;2023-05-09T12:24:10;3.28;;;2.97;;
37931;SDS011;23758;42.640;23.302;2023-05-09T12:26:36;2.20;;;2.10;;
37931;SDS011;23758;42.640;23.302;2023-05-09T12:29:01;2.10;;;2.00;;
37931;SDS011;23758;42.640;23.302;2023-05-09T12:31:27;2.40;;;2.30;;
37931;SDS011;23758;42.640;23.302;2023-05-09T12:33:53;2.22;;;2.13;;
37931;SDS011;23758;42.640;23.302;2023-05-09T12:36:18;2.28;;;2.17;;
37931;SDS011;23758;42.640;23.302;2023-05-09T12:38:53;2.10;;;2.00;;
37931;SDS011;23758;42.640;23.302;2023-05-09T12:41:19;2.20;;;2.10;;
37931;SDS011;23758;42.640;23.302;2023-05-09T12:43:48;2.40;;;2.20;;
37931;SDS011;23758;42.640;23.302;2023-05-09T12:46:18;2.13;;;2.03;;
37931;SDS011;23758;42.640;23.302;2023-05-09T12:48:44;2.17;;;2.08;;
37931;SDS011;23758;42.640;23.302;2023-05-09T12:51:11;2.20;;;2.10;;
37931;SDS011;23758;42.640;23.302;2023-05-09T12:53:37;2.20;;;2.10;;
37931;SDS011;23758;42.640;23.302;2023-05-09T12:56:10;2.35;;;2.25;;
37931;SDS011;23758;42.640;23.302;2023-05-09T13:01:03;2.20;;;2.10;;
37931;SDS011;23758;42.640;23.302;2023-05-09T13:03:29;2.20;;;2.10;;
37931;SDS011;23758;42.640;23.302;2023-05-09T13:06:02;2.27;;;2.17;;
37931;SDS011;23758;42.640;23.302;2023-05-09T13:08:28;2.30;;;2.20;;
37931;SDS011;23758;42.640;23.302;2023-05-09T13:10:54;2.60;;;2.40;;
37931;SDS011;23758;42.640;23.302;2023-05-09T13:13:23;2.20;;;2.10;;
37931;SDS011;23758;42.640;23.302;2023-05-09T13:15:50;2.25;;;2.15;;
37931;SDS011;23758;42.640;23.302;2023-05-09T13:18:16;2.10;;;2.00;;
37931;SDS011;23758;42.640;23.302;2023-05-09T13:20:41;2.30;;;2.20;;
37931;SDS011;23758;42.640;23.302;2023-05-09T13:23:07;2.30;;;2.10;;
37931;SDS011;23758;42.640;23.302;2023-05-09T13:25:32;2.40;;;2.22;;
37931;SDS011;23758;42.640;23.302;2023-05-09T13:27:58;2.10;;;2.00;;
37931;SDS011;23758;42.640;23.302;2023-05-09T13:30:23;2.30;;;2.17;;
37931;SDS011;23758;42.640;23.302;2023-05-09T13:32:49;2.35;;;2.20;;
37931;SDS011;23758;42.640;23.302;2023-05-09T13:35:15;2.28;;;2.15;;
37931;SDS011;23758;42.640;23.302;2023-05-09T13:37:41;2.30;;;2.20;;
37931;SDS011;23758;42.640;23.302;2023-05-09T13:40:08;2.10;;;2.00;;
37931;SDS011;23758;42.640;23.302;2023-05-09T13:42:34;2.20;;;2.10;;
37931;SDS011;23758;42.640;23.302;2023-05-09T13:45:00;2.15;;;2.05;;
37931;SDS011;23758;42.640;23.302;2023-05-09T13:47:25;2.10;;;2.00;;
37931;SDS011;23758;42.640;23.302;2023-05-09T13:49:51;2.10;;;2.00;;
37931;SDS011;23758;42.640;23.302;2023-05-09T13:52:17;2.20;;;2.10;;
37931;SDS011;23758;42.640;23.302;2023-05-09T13:54:42;1.90;;;1.80;;
37931;SDS011;23758;42.640;23.302;2023-05-09T13:57:08;2.25;;;2.10;;
37931;SDS011;23758;42.640;23.302;2023-05-09T13:59:34;2.03;;;1.92;;
37931;SDS011;23758;42.640;23.302;2023-05-09T14:01:59;2.00;;;1.90;;
37931;SDS011;23758;42.640;23.302;2023-05-09T14:04:25;2.20;;;2.10;;
37931;SDS011;23758;42.640;23.302;2023-05-09T14:06:52;2.08;;;1.98;;
37931;SDS011;23758;42.640;23.302;2023-05-09T14:09:20;1.98;;;1.88;;
37931;SDS011;23758;42.640;23.302;2023-05-09T14:11:49;2.10;;;2.00;;
37931;SDS011;23758;42.640;23.302;2023-05-09T14:14:18;2.08;;;1.98;;
37931;SDS011;23758;42.640;23.302;2023-05-09T14:16:45;2.10;;;2.00;;
37931;SDS011;23758;42.640;23.302;2023-05-09T14:19:11;2.03;;;1.92;;
37931;SDS011;23758;42.640;23.302;2023-05-09T14:21:37;2.10;;;2.00;;
37931;SDS011;23758;42.640;23.302;2023-05-09T14:24:03;2.05;;;1.95;;
37931;SDS011;23758;42.640;23.302;2023-05-09T14:26:29;2.10;;;2.00;;
37931;SDS011;23758;42.640;23.302;2023-05-09T14:28:55;2.20;;;2.10;;
37931;SDS011;23758;42.640;23.302;2023-05-09T14:31:20;2.50;;;2.30;;
37931;SDS011;23758;42.640;23.302;2023-05-09T14:33:46;2.00;;;1.90;;
37931;SDS011;23758;42.640;23.302;2023-05-09T14:36:11;2.10;;;2.00;;
37931;SDS011;23758;42.640;23.302;2023-05-09T14:38:37;2.00;;;1.90;;
37931;SDS011;23758;42.640;23.302;2023-05-09T14:41:03;2.20;;;2.10;;
37931;SDS011;23758;42.640;23.302;2023-05-09T14:43:28;2.08;;;1.98;;
37931;SDS011;23758;42.640;23.302;2023-05-09T14:45:54;2.95;;;2.30;;
37931;SDS011;23758;42.640;23.302;2023-05-09T14:48:20;2.10;;;2.00;;
37931;SDS011;23758;42.640;23.302;2023-05-09T14:50:46;2.00;;;1.90;;
37931;SDS011;23758;42.640;23.302;2023-05-09T14:53:13;2.10;;;2.00;;
37931;SDS011;23758;42.640;23.302;2023-05-09T14:55:39;2.00;;;1.90;;
37931;SDS011;23758;42.640;23.302;2023-05-09T14:58:04;2.15;;;2.05;;
37931;SDS011;23758;42.640;23.302;2023-05-09T15:00:30;2.35;;;2.25;;
37931;SDS011;23758;42.640;23.302;2023-05-09T15:02:56;2.10;;;2.00;;
37931;SDS011;23758;42.640;23.302;2023-05-09T15:05:22;2.10;;;2.00;;
37931;SDS011;23758;42.640;23.302;2023-05-09T15:07:47;2.10;;;2.00;;